Time;durP1;ratioP1;P1;durP2;ratioP2;P2;SDS_P1;SDS_P2;PMS_P1;PMS_P2;Temp;Humidity;BMP_temperature;BMP_pressure;BME280_temperature;BME280_humidity;BME280_pressure;Samples;Min_cycle;Max_cycle;Signal;HPM_P1;HPM_P2
2022/10/08 00:00:51;;;;;;;10.45;3.70;;;;;;;16.42;51.90;101269.50;5027935;28;102279;-66
2022/10/08 00:03:21;;;;;;;14.80;4.82;;;;;;;16.48;51.87;101267.38;5029164;28;96749;-66
2022/10/08 00:05:55;;;;;;;11.75;4.38;;;;;;;16.42;52.01;101275.69;5026907;28;97850;-66
2022/10/08 00:08:22;;;;;;;9.05;3.60;;;;;;;16.25;52.65;101279.25;5030562;28;98928;-67
2022/10/08 00:10:52;;;;;;;11.45;4.07;;;;;;;16.27;52.32;101276.50;5031194;27;98975;-66
2022/10/08 00:13:18;;;;;;;10.48;3.90;;;;;;;16.13;53.05;101279.88;5028365;28;96725;-67
2022/10/08 00:15:45;;;;;;;8.27;3.88;;;;;;;16.18;52.88;101272.50;5029171;28;98986;-66
2022/10/08 00:18:11;;;;;;;13.65;4.30;;;;;;;16.46;52.10;101271.09;5025170;28;98953;-66
2022/10/08 00:20:39;;;;;;;15.32;4.40;;;;;;;16.22;52.49;101263.38;5029050;27;97603;-66
2022/10/08 00:23:05;;;;;;;12.50;3.72;;;;;;;16.21;52.96;101266.97;5029451;27;96819;-67
2022/10/08 00:25:32;;;;;;;9.52;3.88;;;;;;;16.15;53.05;101269.09;5028897;28;97487;-66
2022/10/08 00:27:58;;;;;;;9.90;4.32;;;;;;;16.12;53.25;101270.13;5028035;28;98973;-67
2022/10/08 00:30:25;;;;;;;10.43;4.07;;;;;;;16.13;53.23;101271.00;5025898;28;98908;-66
2022/10/08 00:32:51;;;;;;;13.40;4.32;;;;;;;16.09;53.03;101269.41;5030245;27;97931;-67
2022/10/08 00:35:18;;;;;;;9.43;4.38;;;;;;;16.23;52.91;101267.78;5029822;28;97728;-66
2022/10/08 00:37:45;;;;;;;10.95;4.50;;;;;;;16.05;53.50;101262.50;5027655;27;101367;-66
2022/10/08 00:40:12;;;;;;;6.88;3.92;;;;;;;15.97;53.98;101267.34;5028852;28;98824;-66
2022/10/08 00:42:39;;;;;;;7.93;3.70;;;;;;;15.88;54.53;101264.19;5023158;27;96998;-66
2022/10/08 00:45:11;;;;;;;10.60;4.15;;;;;;;15.94;54.26;101273.72;5029503;28;96953;-67
2022/10/08 00:47:44;;;;;;;9.55;4.05;;;;;;;16.00;54.16;101272.53;5024428;28;99644;-66
2022/10/08 00:50:15;;;;;;;9.20;4.25;;;;;;;15.80;54.76;101265.53;5024334;28;98541;-65
2022/10/08 00:52:45;;;;;;;10.57;4.07;;;;;;;16.22;53.71;101267.84;5022478;28;98804;-66
2022/10/08 00:55:14;;;;;;;7.68;3.67;;;;;;;16.31;53.52;101267.41;5023623;28;96905;-66
2022/10/08 00:57:44;;;;;;;6.47;3.60;;;;;;;16.28;53.70;101271.06;5023191;28;99181;-65
2022/10/08 01:00:13;;;;;;;11.93;4.40;;;;;;;16.29;53.82;101267.47;5023150;28;98913;-65
2022/10/08 01:02:40;;;;;;;11.75;4.30;;;;;;;16.28;53.62;101265.72;5024800;28;98443;-66
2022/10/08 01:05:08;;;;;;;8.57;4.18;;;;;;;16.26;53.58;101254.31;5024502;28;96861;-66
2022/10/08 01:07:43;;;;;;;11.55;4.50;;;;;;;16.07;54.31;101255.31;5023088;28;99012;-65
2022/10/08 01:10:20;;;;;;;10.23;4.45;;;;;;;16.13;54.41;101244.34;5022979;28;100318;-66
2022/10/08 01:12:59;;;;;;;15.75;4.95;;;;;;;16.15;54.49;101245.09;5026268;28;97626;-66
2022/10/08 01:15:33;;;;;;;10.52;4.35;;;;;;;15.97;55.02;101248.69;5025186;28;97052;-67
2022/10/08 01:18:09;;;;;;;9.60;4.38;;;;;;;15.92;55.26;101246.28;5025407;28;99509;-66
2022/10/08 01:20:44;;;;;;;11.15;4.35;;;;;;;15.71;55.98;101255.31;5027490;28;99161;-67
2022/10/08 01:23:29;;;;;;;9.65;4.32;;;;;;;16.07;54.76;101240.19;5029209;28;96909;-65
2022/10/08 01:26:10;;;;;;;7.20;4.40;;;;;;;16.07;55.04;101249.97;5027173;28;97334;-67
2022/10/08 01:28:43;;;;;;;9.90;4.78;;;;;;;15.91;55.32;101241.88;5027588;28;99566;-66
2022/10/08 01:31:17;;;;;;;9.48;4.20;;;;;;;16.18;54.67;101242.28;5029502;28;98801;-65
2022/10/08 01:33:48;;;;;;;9.38;4.60;;;;;;;16.01;55.13;101243.16;5026738;27;96742;-66
2022/10/08 01:36:16;;;;;;;12.77;5.30;;;;;;;16.15;54.95;101226.44;5029344;27;96930;-65
2022/10/08 01:38:48;;;;;;;11.93;4.85;;;;;;;16.20;54.63;101229.75;5027928;28;98915;-67
2022/10/08 01:41:16;;;;;;;13.35;5.03;;;;;;;16.00;55.30;101229.91;5028699;27;99643;-66
2022/10/08 01:43:49;;;;;;;11.90;4.80;;;;;;;16.20;54.85;101230.63;5026275;28;96847;-66
2022/10/08 01:46:20;;;;;;;10.85;4.60;;;;;;;16.11;55.09;101225.75;5028627;28;96915;-65
2022/10/08 01:48:49;;;;;;;9.38;4.78;;;;;;;16.13;55.16;101231.00;5026170;28;98862;-66
2022/10/08 01:51:22;;;;;;;12.80;5.45;;;;;;;16.24;54.80;101236.66;5026252;28;101536;-67
2022/10/08 01:53:50;;;;;;;12.43;4.85;;;;;;;16.08;55.39;101233.88;5024769;28;96832;-66
2022/10/08 01:56:22;;;;;;;12.20;4.85;;;;;;;16.13;55.63;101229.22;5028487;28;97631;-66
2022/10/08 01:58:54;;;;;;;9.63;5.10;;;;;;;16.09;55.74;101234.75;5026660;28;98920;-66
2022/10/08 02:01:27;;;;;;;10.15;5.20;;;;;;;16.14;55.69;101222.06;5027478;28;97572;-67
2022/10/08 02:06:55;;;;;;;18.08;5.40;;;;;;;15.95;56.43;101219.44;4979150;28;96763;-66
2022/10/08 02:09:23;;;;;;;8.15;4.45;;;;;;;15.98;55.92;101208.66;5019570;27;99098;-66
2022/10/08 02:11:49;;;;;;;10.57;4.85;;;;;;;16.02;55.93;101220.00;5026645;28;98992;-67
2022/10/08 02:14:17;;;;;;;12.50;5.10;;;;;;;15.97;56.16;101206.91;5022616;28;97613;-66
2022/10/08 02:16:50;;;;;;;10.25;4.85;;;;;;;16.04;55.96;101191.47;5028718;27;96884;-67
2022/10/08 02:19:23;;;;;;;10.00;4.97;;;;;;;15.93;56.21;101184.91;5029013;28;102368;-66
2022/10/08 02:21:51;;;;;;;10.20;4.30;;;;;;;16.09;55.60;101194.75;5026431;28;100957;-66
2022/10/08 02:24:22;;;;;;;9.55;5.05;;;;;;;16.12;55.54;101191.94;5026134;28;96796;-67
2022/10/08 02:26:53;;;;;;;9.77;5.30;;;;;;;15.98;56.07;101192.66;5026503;28;96722;-67
2022/10/08 02:29:28;;;;;;;9.15;4.95;;;;;;;16.08;55.84;101193.91;5026781;28;99994;-66
2022/10/08 02:31:59;;;;;;;9.30;4.53;;;;;;;16.03;55.78;101201.28;5024980;28;102454;-66
2022/10/08 02:34:30;;;;;;;9.45;4.63;;;;;;;16.09;55.64;101192.97;5020987;28;97270;-66
2022/10/08 02:37:01;;;;;;;12.25;4.72;;;;;;;15.94;56.03;101191.97;5027770;28;96951;-65
2022/10/08 02:39:30;;;;;;;13.05;5.07;;;;;;;15.88;56.05;101183.41;5027804;28;99435;-66
2022/10/08 02:42:02;;;;;;;10.43;5.00;;;;;;;15.93;56.16;101197.38;5027890;27;101414;-66
2022/10/08 02:44:35;;;;;;;11.82;5.32;;;;;;;16.02;56.04;101196.00;5029662;28;96916;-66
2022/10/08 02:47:05;;;;;;;7.82;4.35;;;;;;;16.19;55.62;101212.03;5029063;28;96980;-66
2022/10/08 02:49:36;;;;;;;9.40;4.88;;;;;;;15.99;56.06;101207.72;5034110;28;99164;-66
2022/10/08 02:52:04;;;;;;;12.13;4.63;;;;;;;16.16;55.48;101202.38;5032707;27;100499;-66
2022/10/08 02:54:35;;;;;;;8.93;4.25;;;;;;;16.03;55.72;101211.06;5031999;28;96833;-66
2022/10/08 02:57:08;;;;;;;10.65;4.90;;;;;;;15.73;56.96;101208.16;5024995;28;96836;-66
2022/10/08 02:59:37;;;;;;;8.20;5.00;;;;;;;16.08;55.87;101214.38;5030774;28;98985;-66
2022/10/08 03:02:05;;;;;;;9.15;4.60;;;;;;;15.85;56.32;101208.41;5032884;28;99148;-66
2022/10/08 03:04:33;;;;;;;12.55;5.28;;;;;;;15.77;56.58;101212.38;5033550;28;98418;-66
2022/10/08 03:07:00;;;;;;;10.82;5.38;;;;;;;15.92;55.98;101209.81;5031721;28;97330;-65
2022/10/08 03:09:32;;;;;;;13.23;5.68;;;;;;;15.83;56.36;101212.06;5033291;28;99376;-65
2022/10/08 03:12:00;;;;;;;9.65;4.93;;;;;;;15.72;56.60;101201.97;5031746;28;98978;-66
2022/10/08 03:14:28;;;;;;;9.27;4.88;;;;;;;15.71;56.67;101204.69;5031470;27;96756;-66
2022/10/08 03:16:56;;;;;;;9.68;4.93;;;;;;;15.82;56.44;101208.53;5031614;28;96902;-66
2022/10/08 03:19:22;;;;;;;10.18;4.68;;;;;;;15.87;56.23;101211.00;5034264;28;101068;-66
2022/10/08 03:21:53;;;;;;;16.92;5.00;;;;;;;15.87;56.19;101205.66;5032906;27;99051;-66
2022/10/08 03:24:19;;;;;;;10.82;4.85;;;;;;;15.67;56.64;101212.00;5032716;27;98320;-66
2022/10/08 03:26:46;;;;;;;9.43;4.60;;;;;;;15.79;56.28;101210.50;5028308;27;98587;-67
2022/10/08 03:29:12;;;;;;;12.02;5.18;;;;;;;15.63;56.74;101213.06;5028251;28;98939;-66
2022/10/08 03:31:40;;;;;;;10.52;4.43;;;;;;;15.88;56.05;101218.91;5026242;28;96823;-66
2022/10/08 03:34:08;;;;;;;12.52;5.03;;;;;;;15.58;56.88;101214.22;5030924;28;97616;-65
2022/10/08 03:36:34;;;;;;;12.98;4.93;;;;;;;15.76;56.22;101213.31;5032039;27;96900;-67
2022/10/08 03:39:01;;;;;;;9.07;4.68;;;;;;;15.75;56.43;101216.94;5032536;28;99530;-65
2022/10/08 03:41:30;;;;;;;11.40;5.43;;;;;;;15.59;57.02;101211.50;5034177;28;98904;-65
2022/10/08 03:43:56;;;;;;;8.95;4.35;;;;;;;15.72;56.65;101215.28;5031757;28;96766;-65
2022/10/08 03:46:22;;;;;;;14.85;4.05;;;;;;;15.70;56.83;101213.63;5035443;28;96925;-65
2022/10/08 03:48:49;;;;;;;8.73;4.82;;;;;;;15.97;55.99;101209.59;5029787;28;100941;-65
2022/10/08 03:51:18;;;;;;;12.40;4.60;;;;;;;15.83;56.29;101212.06;5033220;28;99178;-66
2022/10/08 03:53:45;;;;;;;13.55;4.50;;;;;;;15.88;56.27;101204.72;5026337;28;96825;-65
2022/10/08 03:56:13;;;;;;;12.18;4.80;;;;;;;15.79;56.45;101205.19;5028024;27;97032;-66
2022/10/08 03:58:40;;;;;;;13.43;4.63;;;;;;;15.76;56.70;101207.97;5030454;28;99260;-65
2022/10/08 04:01:10;;;;;;;7.15;4.28;;;;;;;15.89;56.31;101198.44;5029843;28;99632;-66
2022/10/08 04:03:36;;;;;;;13.43;4.38;;;;;;;16.00;55.81;101193.44;5028859;28;97843;-65
2022/10/08 04:06:03;;;;;;;9.10;4.57;;;;;;;16.16;55.13;101190.84;5030689;28;97355;-65
2022/10/08 04:08:32;;;;;;;7.65;4.53;;;;;;;15.79;56.47;101194.53;5029758;28;99405;-66
2022/10/08 04:11:02;;;;;;;5.72;3.85;;;;;;;16.05;55.78;101202.06;5029678;27;99162;-66
2022/10/08 04:13:29;;;;;;;10.73;4.40;;;;;;;16.32;55.10;101186.47;5026657;28;97702;-66
2022/10/08 04:16:00;;;;;;;9.70;4.45;;;;;;;16.13;55.47;101193.69;5028499;28;97570;-65
2022/10/08 04:18:26;;;;;;;13.90;4.90;;;;;;;16.27;54.89;101193.84;5030198;27;98870;-65
2022/10/08 04:20:57;;;;;;;10.20;4.78;;;;;;;16.11;55.60;101193.75;5029720;27;98901;-66
2022/10/08 04:23:25;;;;;;;8.55;4.30;;;;;;;16.17;55.21;101198.78;5028248;28;96822;-65
2022/10/08 04:25:53;;;;;;;7.25;4.22;;;;;;;16.09;55.40;101192.97;5027437;27;96860;-65
2022/10/08 04:28:21;;;;;;;10.88;4.15;;;;;;;16.02;55.93;101204.88;5026030;28;98931;-65
2022/10/08 04:30:55;;;;;;;10.15;4.10;;;;;;;16.05;55.77;101204.72;5027626;28;97630;-65
2022/10/08 04:33:22;;;;;;;6.70;4.53;;;;;;;16.01;55.94;101203.19;5027735;28;96852;-65
2022/10/08 04:35:48;;;;;;;15.27;4.95;;;;;;;16.02;55.66;101199.53;5027357;27;97649;-66
2022/10/08 04:38:15;;;;;;;8.93;4.95;;;;;;;15.93;56.11;101203.56;5026326;28;99014;-65
2022/10/08 04:40:41;;;;;;;7.07;3.90;;;;;;;16.08;55.79;101193.91;5023525;27;98977;-65
2022/10/08 04:43:09;;;;;;;7.82;4.28;;;;;;;16.07;55.42;101208.19;5025211;28;99462;-65
2022/10/08 04:45:41;;;;;;;8.07;4.43;;;;;;;16.01;55.81;101208.50;5026734;28;96793;-66
2022/10/08 04:48:08;;;;;;;8.38;4.03;;;;;;;16.11;55.34;101209.75;5029813;28;100849;-66
2022/10/08 04:50:34;;;;;;;11.30;3.97;;;;;;;15.91;56.01;101201.91;5028537;27;99283;-66
2022/10/08 04:53:00;;;;;;;11.45;4.32;;;;;;;15.84;56.11;101197.81;5028342;27;96880;-65
2022/10/08 04:55:27;;;;;;;15.23;4.35;;;;;;;16.04;55.39;101197.66;5029344;28;97119;-65
2022/10/08 04:57:53;;;;;;;11.65;3.90;;;;;;;15.66;56.69;101207.59;5027098;27;99395;-66
2022/10/08 05:00:21;;;;;;;9.40;3.90;;;;;;;15.84;55.95;101201.34;5025660;27;99144;-65
2022/10/08 05:02:47;;;;;;;15.10;4.30;;;;;;;15.73;56.44;101208.16;5025287;28;96928;-66
2022/10/08 05:05:15;;;;;;;11.35;3.90;;;;;;;15.91;55.91;101204.56;5029158;27;96928;-66
2022/10/08 05:07:41;;;;;;;12.20;5.65;;;;;;;15.87;55.96;101205.66;5028656;28;99414;-66
2022/10/08 05:10:08;;;;;;;8.90;4.22;;;;;;;15.88;56.13;101204.72;5027868;28;99133;-65
2022/10/08 05:12:35;;;;;;;13.40;4.80;;;;;;;15.88;55.97;101207.41;5028091;27;96709;-65
2022/10/08 05:15:01;;;;;;;9.98;3.97;;;;;;;15.84;56.21;101209.34;5025844;28;97118;-65
2022/10/08 05:17:29;;;;;;;13.40;4.38;;;;;;;15.71;56.31;101205.56;5027767;28;99256;-65
2022/10/08 05:19:55;;;;;;;12.80;4.00;;;;;;;15.65;56.39;101210.31;5022982;27;98772;-65
2022/10/08 05:22:22;;;;;;;11.77;4.55;;;;;;;16.03;55.52;101203.06;5027129;28;97437;-65
2022/10/08 05:24:48;;;;;;;11.13;4.10;;;;;;;15.83;56.16;101201.41;5027362;28;96869;-65
2022/10/08 05:27:14;;;;;;;8.88;4.28;;;;;;;15.98;55.66;101205.97;5024280;28;99059;-66
2022/10/08 05:29:41;;;;;;;9.95;4.38;;;;;;;16.11;55.35;101208.88;5024988;28;99546;-65
2022/10/08 05:32:07;;;;;;;13.60;4.10;;;;;;;15.92;55.90;101208.97;5026711;28;97513;-65
2022/10/08 05:34:35;;;;;;;10.95;4.22;;;;;;;16.01;55.68;101207.66;5027569;27;96945;-66
2022/10/08 05:37:01;;;;;;;12.38;5.00;;;;;;;15.99;55.45;101210.38;5029212;27;98003;-66
2022/10/08 05:39:27;;;;;;;13.32;4.07;;;;;;;16.03;55.54;101208.41;5024971;28;99041;-64
2022/10/08 05:41:54;;;;;;;8.82;4.40;;;;;;;15.88;56.06;101215.41;5027235;27;96909;-66
2022/10/08 05:44:22;;;;;;;12.77;4.57;;;;;;;16.21;55.34;101204.81;5024914;28;97126;-66
2022/10/08 05:46:49;;;;;;;8.60;4.07;;;;;;;16.23;55.35;101203.78;5027242;28;99825;-67
2022/10/08 05:49:18;;;;;;;11.63;4.13;;;;;;;16.18;55.51;101205.84;5029241;27;99269;-67
2022/10/08 05:51:46;;;;;;;7.78;4.00;;;;;;;16.01;56.04;101207.66;5027404;28;96805;-66
2022/10/08 05:54:12;;;;;;;10.93;3.70;;;;;;;16.15;55.41;101210.44;5027705;28;98747;-66
2022/10/08 05:56:39;;;;;;;9.93;4.07;;;;;;;16.17;55.37;101211.25;5027462;28;98934;-66
2022/10/08 05:59:12;;;;;;;9.23;4.25;;;;;;;16.21;55.62;101213.66;5027251;27;100165;-67
2022/10/08 06:01:38;;;;;;;6.85;3.55;;;;;;;16.34;54.98;101216.59;5028406;28;97046;-67
2022/10/08 06:04:05;;;;;;;11.52;4.15;;;;;;;16.24;55.23;101215.31;5024229;28;97286;-67
2022/10/08 06:06:32;;;;;;;13.73;4.10;;;;;;;16.14;55.63;101219.41;5027332;28;98294;-66
2022/10/08 06:09:01;;;;;;;8.23;3.60;;;;;;;16.02;56.16;101214.66;5021164;28;98934;-66
2022/10/08 06:11:30;;;;;;;12.75;4.32;;;;;;;15.99;56.32;101215.72;5025501;28;97129;-66
2022/10/08 06:13:59;;;;;;;13.30;3.90;;;;;;;16.24;55.69;101212.66;5020641;27;100635;-67
2022/10/08 06:16:26;;;;;;;10.48;4.07;;;;;;;16.26;55.49;101208.97;5026616;27;99227;-66
2022/10/08 06:18:53;;;;;;;9.38;3.97;;;;;;;16.19;55.74;101217.38;5028634;27;98876;-66
2022/10/08 06:21:22;;;;;;;13.70;3.42;;;;;;;16.09;55.67;101221.41;5028400;28;97233;-66
2022/10/08 06:23:51;;;;;;;8.43;3.53;;;;;;;16.14;55.78;101224.75;5025731;28;97794;-66
2022/10/08 06:26:20;;;;;;;10.90;3.97;;;;;;;16.15;55.99;101226.44;5028006;27;101520;-68
2022/10/08 06:28:48;;;;;;;13.23;4.55;;;;;;;16.07;56.10;101231.31;5024671;28;98877;-65
2022/10/08 06:31:15;;;;;;;14.88;4.25;;;;;;;16.21;55.63;101228.81;5027889;27;96743;-66
2022/10/08 06:33:41;;;;;;;14.85;4.78;;;;;;;16.27;55.53;101239.16;5024605;28;97186;-65
2022/10/08 06:36:13;;;;;;;11.00;4.05;;;;;;;16.07;56.13;101236.66;5028396;27;99337;-67
2022/10/08 06:38:40;;;;;;;11.50;3.92;;;;;;;16.07;56.16;101242.84;5025996;27;101257;-66
2022/10/08 06:41:07;;;;;;;11.80;4.10;;;;;;;16.27;55.52;101240.03;5027157;27;98640;-66
2022/10/08 06:43:35;;;;;;;14.07;4.82;;;;;;;16.29;55.40;101245.25;5024751;28;97250;-66
2022/10/08 06:46:04;;;;;;;8.57;4.10;;;;;;;16.29;55.38;101246.13;5023884;28;101683;-65
2022/10/08 06:48:31;;;;;;;13.45;4.00;;;;;;;16.37;55.41;101242.22;5027768;28;101283;-67
2022/10/08 06:50:59;;;;;;;10.48;3.95;;;;;;;16.33;55.52;101247.72;5025014;28;96805;-67
2022/10/08 06:53:26;;;;;;;13.10;4.30;;;;;;;16.48;55.13;101248.72;5027560;27;96920;-66
2022/10/08 06:55:56;;;;;;;9.70;4.47;;;;;;;16.21;55.89;101247.47;5022977;28;102281;-66
2022/10/08 06:58:23;;;;;;;13.98;4.10;;;;;;;16.49;55.01;101242.44;5022865;28;99298;-66
2022/10/08 07:01:00;;;;;;;11.80;3.80;;;;;;;16.57;54.85;101245.56;5022610;27;97206;-68
2022/10/08 07:03:27;;;;;;;8.95;3.78;;;;;;;16.80;54.34;101247.06;5020820;28;98709;-66
2022/10/08 07:05:53;;;;;;;13.88;3.80;;;;;;;16.81;54.44;101232.75;5018185;28;98404;-65
2022/10/08 07:08:20;;;;;;;13.27;3.63;;;;;;;16.86;54.13;101241.41;5028220;27;98262;-67
2022/10/08 07:10:53;;;;;;;13.60;3.80;;;;;;;16.92;53.98;101243.75;5027669;27;99185;-67
2022/10/08 07:13:19;;;;;;;10.52;3.95;;;;;;;17.08;53.52;101249.97;5021695;28;98309;-65
2022/10/08 07:15:46;;;;;;;10.90;3.75;;;;;;;16.91;53.50;101251.81;5021461;27;99392;-68
2022/10/08 07:18:14;;;;;;;8.52;3.70;;;;;;;16.67;54.32;101264.69;5025432;27;98865;-67
2022/10/08 07:20:41;;;;;;;11.20;3.80;;;;;;;16.59;54.48;101264.19;5026529;28;96886;-67
2022/10/08 07:23:07;;;;;;;12.50;3.80;;;;;;;16.82;54.11;101266.50;5027334;28;97173;-66
2022/10/08 07:25:34;;;;;;;14.55;4.22;;;;;;;16.87;54.27;101267.13;5024353;27;99366;-67
2022/10/08 07:28:00;;;;;;;10.40;4.43;;;;;;;17.22;52.97;101267.91;5025364;27;99093;-68
2022/10/08 07:30:27;;;;;;;13.25;4.15;;;;;;;17.34;52.73;101269.03;5030707;28;97628;-66
2022/10/08 07:32:53;;;;;;;11.85;3.95;;;;;;;17.41;52.43;101273.09;5023019;28;97593;-67
2022/10/08 07:35:21;;;;;;;9.00;4.28;;;;;;;17.48;52.32;101278.00;5027831;28;99124;-66
2022/10/08 07:37:47;;;;;;;10.13;4.32;;;;;;;17.44;52.29;101276.47;5025350;28;98794;-67
2022/10/08 07:40:14;;;;;;;9.45;4.00;;;;;;;17.26;52.56;101276.63;5029861;28;96768;-67
2022/10/08 07:42:40;;;;;;;10.60;4.18;;;;;;;17.08;53.20;101279.31;5027601;28;96996;-66
2022/10/08 07:45:07;;;;;;;7.80;4.18;;;;;;;17.23;52.88;101277.63;5029993;28;99369;-66
2022/10/08 07:47:34;;;;;;;9.63;3.78;;;;;;;17.14;52.98;101283.47;5030179;28;99089;-67
2022/10/08 07:50:00;;;;;;;12.02;3.78;;;;;;;17.05;53.45;101279.50;5028233;28;96958;-67
2022/10/08 07:52:30;;;;;;;11.45;3.30;;;;;;;17.23;52.98;101276.78;5029569;27;96913;-66
2022/10/08 07:54:56;;;;;;;10.60;3.15;;;;;;;17.59;52.18;101277.41;5029503;28;99034;-66
2022/10/08 07:57:23;;;;;;;15.60;4.40;;;;;;;17.74;51.50;101286.41;5023526;27;99783;-67
2022/10/08 07:59:50;;;;;;;10.43;3.20;;;;;;;17.78;51.33;101286.16;5028101;28;96809;-65
2022/10/08 08:02:16;;;;;;;8.30;3.20;;;;;;;17.92;51.01;101288.03;5024889;27;98856;-66
2022/10/08 08:04:42;;;;;;;10.88;3.35;;;;;;;17.97;50.77;101295.78;5029125;28;99204;-68
2022/10/08 08:07:09;;;;;;;14.88;3.15;;;;;;;17.88;50.67;101290.03;5030020;28;97859;-67
2022/10/08 08:09:37;;;;;;;9.02;2.90;;;;;;;18.20;49.91;101288.16;5026165;28;97042;-67
2022/10/08 08:12:03;;;;;;;9.02;3.92;;;;;;;18.46;49.40;101283.94;5025342;28;97353;-67
2022/10/08 08:14:29;;;;;;;14.98;2.25;;;;;;;18.17;49.11;101291.03;5027369;27;99793;-69
2022/10/08 08:16:56;;;;;;;8.80;2.25;;;;;;;18.31;48.93;101296.41;5028109;27;98892;-66
2022/10/08 08:19:23;;;;;;;12.38;3.17;;;;;;;18.38;48.95;101299.56;5028002;28;97487;-66
2022/10/08 08:21:49;;;;;;;9.70;2.30;;;;;;;18.21;48.77;101299.72;5028704;28;96953;-67
2022/10/08 08:24:16;;;;;;;16.80;2.20;;;;;;;18.29;48.67;101294.78;5029445;28;99170;-67
2022/10/08 08:26:44;;;;;;;11.75;2.40;;;;;;;17.96;49.53;101294.94;5028841;28;100765;-66
2022/10/08 08:29:13;;;;;;;12.70;2.22;;;;;;;17.68;50.38;101295.63;5027065;28;97647;-67
2022/10/08 08:31:42;;;;;;;16.15;2.20;;;;;;;18.03;49.65;101300.78;5028947;27;96874;-66
2022/10/08 08:34:10;;;;;;;16.35;2.55;;;;;;;18.61;48.32;101304.47;5021765;28;102397;-68
2022/10/08 08:36:38;;;;;;;13.70;2.40;;;;;;;19.21;46.23;101304.34;5029795;28;98848;-68
2022/10/08 08:39:06;;;;;;;13.52;3.13;;;;;;;19.44;46.27;101303.75;5026543;27;97281;-67
2022/10/08 08:41:50;;;;;;;17.27;2.70;;;;;;;19.60;45.59;101308.16;5028255;28;97150;-66
2022/10/08 08:44:21;;;;;;;15.38;2.40;;;;;;;19.78;45.46;101304.28;5026035;28;99083;-67
2022/10/08 08:46:54;;;;;;;9.65;2.40;;;;;;;19.65;45.57;101300.69;5029728;27;97729;-68
2022/10/08 08:49:28;;;;;;;10.30;3.00;;;;;;;19.17;46.50;101299.25;5025979;28;96899;-67
2022/10/08 08:51:56;;;;;;;14.10;3.00;;;;;;;18.91;47.58;101296.38;5029824;28;97018;-66
2022/10/08 08:54:23;;;;;;;12.20;3.35;;;;;;;18.45;48.83;101297.41;5027572;27;98953;-66
2022/10/08 08:56:52;;;;;;;17.02;3.13;;;;;;;18.69;48.71;101306.69;5025800;27;98769;-66
2022/10/08 08:59:27;;;;;;;15.55;3.10;;;;;;;18.94;48.41;101306.06;5028570;28;96912;-67
2022/10/08 09:01:59;;;;;;;11.10;2.70;;;;;;;18.87;48.46;101310.06;5029819;27;97076;-66
2022/10/08 09:04:33;;;;;;;9.73;2.85;;;;;;;19.19;47.73;101316.97;5027591;28;100119;-66
2022/10/08 09:07:03;;;;;;;12.27;2.90;;;;;;;19.35;47.57;101314.19;5027475;27;98954;-66
2022/10/08 09:09:36;;;;;;;16.23;2.90;;;;;;;19.84;46.77;101323.53;5028243;27;96792;-67
2022/10/08 09:12:15;;;;;;;10.48;3.13;;;;;;;20.07;46.05;101327.41;5029085;28;98013;-67
2022/10/08 09:14:45;;;;;;;13.95;2.70;;;;;;;19.35;47.38;101323.09;5024785;28;102600;-66
2022/10/08 09:17:16;;;;;;;17.70;3.40;;;;;;;19.19;47.70;101326.81;5026706;28;99039;-67
2022/10/08 09:19:42;;;;;;;14.40;3.72;;;;;;;19.13;47.71;101325.38;5028353;28;97894;-67
2022/10/08 09:22:19;;;;;;;9.63;2.65;;;;;;;19.22;47.14;101332.00;5022998;28;98794;-66
2022/10/08 09:24:47;;;;;;;18.40;3.05;;;;;;;19.64;46.60;101325.75;5025016;28;100748;-66
2022/10/08 09:27:15;;;;;;;12.85;3.08;;;;;;;20.33;45.11;101312.28;5024868;28;99318;-67
2022/10/08 09:29:42;;;;;;;13.18;3.42;;;;;;;19.46;46.78;101325.13;5022692;28;97467;-66
2022/10/08 09:32:16;;;;;;;10.57;2.85;;;;;;;19.35;47.39;101335.63;5026162;28;98775;-68
2022/10/08 09:34:43;;;;;;;18.70;3.78;;;;;;;19.43;46.87;101334.19;5028536;28;102178;-68
2022/10/08 09:37:19;;;;;;;13.82;3.10;;;;;;;19.36;46.99;101335.50;5017606;27;99407;-67
2022/10/08 09:40:06;;;;;;;16.80;3.75;;;;;;;19.29;47.42;101339.56;5023237;27;97011;-68
2022/10/08 09:42:34;;;;;;;11.77;3.20;;;;;;;19.38;47.45;101338.09;5021974;27;97886;-67
2022/10/08 09:45:02;;;;;;;12.60;3.45;;;;;;;19.48;47.24;101341.97;5022712;27;98969;-66
2022/10/08 09:47:30;;;;;;;16.77;3.33;;;;;;;19.42;47.46;101336.97;5022655;27;98160;-66
2022/10/08 09:50:03;;;;;;;12.82;3.30;;;;;;;19.75;46.45;101342.91;5021009;27;97430;-67
2022/10/08 09:52:30;;;;;;;14.73;3.45;;;;;;;20.28;45.91;101342.06;5016179;27;97016;-67
2022/10/08 09:55:01;;;;;;;14.07;3.45;;;;;;;20.37;45.23;101347.81;5028204;27;99258;-66
2022/10/08 09:57:30;;;;;;;11.20;2.80;;;;;;;20.03;45.87;101347.31;5024003;27;98916;-66
2022/10/08 10:00:01;;;;;;;12.90;3.30;;;;;;;19.92;46.20;101359.72;5020403;27;97139;-66
2022/10/08 10:02:31;;;;;;;12.00;3.38;;;;;;;19.71;46.22;101360.13;5026121;27;97393;-66
2022/10/08 10:05:00;;;;;;;12.07;2.95;;;;;;;19.79;46.27;101365.00;5023928;27;99282;-67
2022/10/08 10:07:37;;;;;;;11.27;3.70;;;;;;;20.10;45.81;101359.38;5026275;27;98926;-68
2022/10/08 10:10:09;;;;;;;10.50;2.92;;;;;;;20.53;44.65;101356.56;5020434;27;97733;-67
2022/10/08 10:12:39;;;;;;;13.88;3.67;;;;;;;20.36;45.01;101351.47;5022326;27;98135;-68
2022/10/08 10:15:15;;;;;;;11.93;3.28;;;;;;;19.97;45.94;101352.22;5022325;27;99490;-66
2022/10/08 10:17:48;;;;;;;10.15;2.90;;;;;;;20.42;44.79;101345.69;5022676;27;98932;-67
2022/10/08 10:20:21;;;;;;;12.93;2.65;;;;;;;20.39;45.04;101357.50;5023202;27;96898;-67
2022/10/08 10:22:53;;;;;;;12.10;2.65;;;;;;;20.50;44.56;101352.25;5018459;27;98609;-66
2022/10/08 10:25:29;;;;;;;11.15;2.75;;;;;;;19.93;45.72;101356.09;5020793;27;99270;-66
2022/10/08 10:28:01;;;;;;;12.77;3.30;;;;;;;19.68;46.42;101356.81;5021092;28;99458;-67
2022/10/08 10:30:29;;;;;;;16.60;3.47;;;;;;;19.72;46.32;101369.91;5023420;27;96991;-67
2022/10/08 10:33:02;;;;;;;15.68;3.47;;;;;;;18.88;48.28;101365.34;5027984;27;96925;-67
2022/10/08 10:35:30;;;;;;;9.32;2.55;;;;;;;18.87;48.52;101371.63;5022063;27;98623;-66
2022/10/08 10:38:06;;;;;;;12.50;3.33;;;;;;;19.07;48.02;101371.31;5025157;27;98884;-65
2022/10/08 10:40:40;;;;;;;9.80;2.70;;;;;;;18.74;48.89;101371.50;5023140;27;97907;-67
2022/10/08 10:43:20;;;;;;;10.98;2.72;;;;;;;19.15;47.77;101371.69;5020223;27;97359;-68
2022/10/08 10:45:53;;;;;;;13.23;3.13;;;;;;;19.38;47.28;101364.91;5024733;27;97514;-66
2022/10/08 10:48:20;;;;;;;11.13;2.53;;;;;;;19.72;46.87;101367.22;5021518;27;101025;-66
2022/10/08 10:50:59;;;;;;;9.65;3.03;;;;;;;19.61;46.63;101366.19;5023423;27;97072;-66
2022/10/08 10:53:35;;;;;;;12.77;3.17;;;;;;;19.52;46.64;101366.75;5022143;27;96915;-67
2022/10/08 10:56:09;;;;;;;13.25;2.95;;;;;;;19.48;47.17;101369.66;5025236;27;98921;-66
2022/10/08 10:58:45;;;;;;;9.80;2.83;;;;;;;19.15;47.65;101369.03;5025342;27;100040;-66
2022/10/08 11:01:29;;;;;;;20.23;3.22;;;;;;;19.34;47.20;101358.03;5022118;27;97666;-66
2022/10/08 11:04:03;;;;;;;21.83;3.53;;;;;;;19.43;47.27;101368.16;5022963;27;98580;-67
2022/10/08 11:07:02;;;;;;;13.45;3.40;;;;;;;19.37;47.44;101363.19;5025954;27;99346;-66
2022/10/08 11:09:40;;;;;;;8.82;2.40;;;;;;;19.52;46.99;101364.94;5024103;27;102839;-66
2022/10/08 11:12:21;;;;;;;14.75;2.90;;;;;;;19.78;46.67;101374.00;5022905;27;96965;-67
2022/10/08 11:14:59;;;;;;;9.20;2.50;;;;;;;19.68;46.65;101372.88;5025584;27;97029;-66
2022/10/08 11:17:44;;;;;;;15.48;2.90;;;;;;;19.70;46.79;101368.28;5023003;27;97951;-67
2022/10/08 11:20:36;;;;;;;9.60;2.53;;;;;;;18.96;48.45;101369.28;5023139;27;99447;-66
2022/10/08 11:23:11;;;;;;;12.80;2.75;;;;;;;19.22;48.07;101374.88;5023344;27;97698;-66
2022/10/08 11:25:42;;;;;;;12.20;2.95;;;;;;;19.21;48.80;101375.81;5026072;27;98472;-67
2022/10/08 11:28:23;;;;;;;14.00;3.38;;;;;;;19.27;49.88;101384.34;5027012;27;99471;-67
2022/10/08 11:31:00;;;;;;;15.45;3.42;;;;;;;19.15;51.67;101382.41;5022155;27;101322;-65
2022/10/08 11:33:28;;;;;;;13.05;3.33;;;;;;;19.17;52.19;101382.28;5024599;27;97667;-66